sensor_id;sensor_type;location;lat;lon;timestamp;P1;durP1;ratioP1;P2;durP2;ratioP2
57635;SDS011;43465;50.728;4.160;2023-08-07T00:00:11;6.72;;;3.30;;
57635;SDS011;43465;50.728;4.160;2023-08-07T00:02:37;8.95;;;3.22;;
57635;SDS011;43465;50.728;4.160;2023-08-07T00:05:03;5.90;;;3.20;;
57635;SDS011;43465;50.728;4.160;2023-08-07T00:07:30;9.55;;;2.95;;
57635;SDS011;43465;50.728;4.160;2023-08-07T00:09:55;7.63;;;3.55;;
57635;SDS011;43465;50.728;4.160;2023-08-07T00:12:21;7.20;;;3.28;;
57635;SDS011;43465;50.728;4.160;2023-08-07T00:14:47;8.60;;;3.63;;
57635;SDS011;43465;50.728;4.160;2023-08-07T00:17:15;10.25;;;3.58;;
57635;SDS011;43465;50.728;4.160;2023-08-07T00:19:41;6.80;;;3.47;;
57635;SDS011;43465;50.728;4.160;2023-08-07T00:22:06;9.93;;;3.45;;
57635;SDS011;43465;50.728;4.160;2023-08-07T00:24:32;9.63;;;3.17;;
57635;SDS011;43465;50.728;4.160;2023-08-07T00:26:58;7.93;;;3.30;;
57635;SDS011;43465;50.728;4.160;2023-08-07T00:29:23;11.90;;;3.92;;
57635;SDS011;43465;50.728;4.160;2023-08-07T00:31:49;7.93;;;3.53;;
57635;SDS011;43465;50.728;4.160;2023-08-07T00:34:15;10.98;;;3.42;;
57635;SDS011;43465;50.728;4.160;2023-08-07T00:36:40;11.27;;;3.60;;
57635;SDS011;43465;50.728;4.160;2023-08-07T00:39:06;10.50;;;3.83;;
57635;SDS011;43465;50.728;4.160;2023-08-07T00:41:33;10.73;;;3.70;;
57635;SDS011;43465;50.728;4.160;2023-08-07T00:43:59;12.52;;;3.90;;
57635;SDS011;43465;50.728;4.160;2023-08-07T00:46:25;8.55;;;3.70;;
57635;SDS011;43465;50.728;4.160;2023-08-07T00:48:52;11.65;;;3.15;;
57635;SDS011;43465;50.728;4.160;2023-08-07T00:51:19;9.50;;;3.42;;
57635;SDS011;43465;50.728;4.160;2023-08-07T00:53:45;9.70;;;4.05;;
57635;SDS011;43465;50.728;4.160;2023-08-07T00:56:13;8.43;;;3.50;;
57635;SDS011;43465;50.728;4.160;2023-08-07T00:58:39;9.38;;;3.75;;
57635;SDS011;43465;50.728;4.160;2023-08-07T01:01:05;9.02;;;3.38;;
57635;SDS011;43465;50.728;4.160;2023-08-07T01:03:32;11.80;;;4.20;;
57635;SDS011;43465;50.728;4.160;2023-08-07T01:05:59;9.13;;;3.50;;
57635;SDS011;43465;50.728;4.160;2023-08-07T01:08:24;11.05;;;4.18;;
57635;SDS011;43465;50.728;4.160;2023-08-07T01:13:45;11.50;;;4.38;;
57635;SDS011;43465;50.728;4.160;2023-08-07T01:16:28;8.43;;;3.75;;
57635;SDS011;43465;50.728;4.160;2023-08-07T01:18:55;11.77;;;4.30;;
57635;SDS011;43465;50.728;4.160;2023-08-07T01:21:22;14.40;;;4.28;;
57635;SDS011;43465;50.728;4.160;2023-08-07T01:23:48;6.32;;;3.72;;
57635;SDS011;43465;50.728;4.160;2023-08-07T01:26:18;11.60;;;3.80;;
57635;SDS011;43465;50.728;4.160;2023-08-07T01:28:58;9.38;;;3.72;;
57635;SDS011;43465;50.728;4.160;2023-08-07T01:31:36;8.52;;;3.70;;
57635;SDS011;43465;50.728;4.160;2023-08-07T01:34:05;8.35;;;3.40;;
57635;SDS011;43465;50.728;4.160;2023-08-07T01:36:33;10.20;;;3.58;;
57635;SDS011;43465;50.728;4.160;2023-08-07T01:38:59;8.68;;;3.88;;
57635;SDS011;43465;50.728;4.160;2023-08-07T01:41:26;7.90;;;3.67;;
57635;SDS011;43465;50.728;4.160;2023-08-07T01:43:53;10.35;;;3.83;;
57635;SDS011;43465;50.728;4.160;2023-08-07T01:46:20;6.85;;;3.45;;
57635;SDS011;43465;50.728;4.160;2023-08-07T01:48:46;9.43;;;3.63;;
57635;SDS011;43465;50.728;4.160;2023-08-07T01:51:11;7.38;;;3.17;;
57635;SDS011;43465;50.728;4.160;2023-08-07T01:53:37;10.13;;;3.55;;
57635;SDS011;43465;50.728;4.160;2023-08-07T01:56:02;7.65;;;3.35;;
57635;SDS011;43465;50.728;4.160;2023-08-07T01:58:28;8.40;;;3.35;;
57635;SDS011;43465;50.728;4.160;2023-08-07T02:00:54;10.38;;;3.67;;
57635;SDS011;43465;50.728;4.160;2023-08-07T02:03:20;6.82;;;3.25;;
57635;SDS011;43465;50.728;4.160;2023-08-07T02:05:46;8.77;;;3.40;;
57635;SDS011;43465;50.728;4.160;2023-08-07T02:08:11;8.73;;;3.53;;
57635;SDS011;43465;50.728;4.160;2023-08-07T02:10:37;9.23;;;3.35;;
57635;SDS011;43465;50.728;4.160;2023-08-07T02:13:03;11.02;;;4.00;;
57635;SDS011;43465;50.728;4.160;2023-08-07T02:15:28;6.78;;;3.30;;
57635;SDS011;43465;50.728;4.160;2023-08-07T02:17:54;9.95;;;3.10;;
57635;SDS011;43465;50.728;4.160;2023-08-07T02:20:20;8.27;;;3.60;;
57635;SDS011;43465;50.728;4.160;2023-08-07T02:22:46;7.60;;;3.42;;
57635;SDS011;43465;50.728;4.160;2023-08-07T02:25:11;6.85;;;3.38;;
57635;SDS011;43465;50.728;4.160;2023-08-07T02:27:37;6.88;;;3.25;;
57635;SDS011;43465;50.728;4.160;2023-08-07T02:30:03;11.27;;;3.33;;
57635;SDS011;43465;50.728;4.160;2023-08-07T02:32:30;9.32;;;3.03;;
57635;SDS011;43465;50.728;4.160;2023-08-07T02:34:56;7.97;;;3.35;;
57635;SDS011;43465;50.728;4.160;2023-08-07T02:37:22;8.07;;;3.85;;
57635;SDS011;43465;50.728;4.160;2023-08-07T02:39:47;8.52;;;3.70;;
57635;SDS011;43465;50.728;4.160;2023-08-07T02:42:13;12.63;;;3.60;;
57635;SDS011;43465;50.728;4.160;2023-08-07T02:44:39;7.45;;;3.55;;
57635;SDS011;43465;50.728;4.160;2023-08-07T02:47:04;7.22;;;3.50;;
57635;SDS011;43465;50.728;4.160;2023-08-07T02:49:31;7.53;;;3.75;;
57635;SDS011;43465;50.728;4.160;2023-08-07T02:51:56;10.38;;;4.05;;
57635;SDS011;43465;50.728;4.160;2023-08-07T02:54:22;7.55;;;3.70;;
57635;SDS011;43465;50.728;4.160;2023-08-07T02:56:47;7.25;;;3.88;;
57635;SDS011;43465;50.728;4.160;2023-08-07T02:59:16;7.80;;;3.60;;
57635;SDS011;43465;50.728;4.160;2023-08-07T03:01:43;7.63;;;3.63;;
57635;SDS011;43465;50.728;4.160;2023-08-07T03:04:09;8.40;;;3.42;;
57635;SDS011;43465;50.728;4.160;2023-08-07T03:06:34;8.02;;;3.50;;
57635;SDS011;43465;50.728;4.160;2023-08-07T03:09:00;16.52;;;4.10;;
57635;SDS011;43465;50.728;4.160;2023-08-07T03:11:26;7.20;;;3.80;;
57635;SDS011;43465;50.728;4.160;2023-08-07T03:13:51;9.80;;;3.70;;
57635;SDS011;43465;50.728;4.160;2023-08-07T03:16:17;10.40;;;3.55;;
57635;SDS011;43465;50.728;4.160;2023-08-07T03:18:43;9.73;;;3.42;;
57635;SDS011;43465;50.728;4.160;2023-08-07T03:21:08;7.45;;;3.10;;
57635;SDS011;43465;50.728;4.160;2023-08-07T03:23:34;7.95;;;3.55;;
57635;SDS011;43465;50.728;4.160;2023-08-07T03:26:07;7.90;;;3.28;;
57635;SDS011;43465;50.728;4.160;2023-08-07T03:28:34;7.28;;;3.58;;
57635;SDS011;43465;50.728;4.160;2023-08-07T03:31:01;7.53;;;3.75;;
57635;SDS011;43465;50.728;4.160;2023-08-07T03:33:27;8.00;;;3.55;;
57635;SDS011;43465;50.728;4.160;2023-08-07T03:35:52;14.35;;;4.07;;
57635;SDS011;43465;50.728;4.160;2023-08-07T03:38:18;7.68;;;4.22;;
57635;SDS011;43465;50.728;4.160;2023-08-07T03:40:44;10.48;;;4.22;;
57635;SDS011;43465;50.728;4.160;2023-08-07T03:43:10;9.35;;;4.25;;
57635;SDS011;43465;50.728;4.160;2023-08-07T03:45:35;9.48;;;3.80;;
57635;SDS011;43465;50.728;4.160;2023-08-07T03:48:01;10.57;;;4.18;;
57635;SDS011;43465;50.728;4.160;2023-08-07T03:50:27;12.60;;;4.30;;
57635;SDS011;43465;50.728;4.160;2023-08-07T03:52:55;9.88;;;4.18;;
57635;SDS011;43465;50.728;4.160;2023-08-07T03:55:20;7.78;;;3.92;;
57635;SDS011;43465;50.728;4.160;2023-08-07T03:57:46;11.60;;;4.43;;
57635;SDS011;43465;50.728;4.160;2023-08-07T04:00:13;8.90;;;4.72;;
57635;SDS011;43465;50.728;4.160;2023-08-07T04:02:39;8.95;;;4.43;;
57635;SDS011;43465;50.728;4.160;2023-08-07T04:05:05;9.38;;;4.88;;
57635;SDS011;43465;50.728;4.160;2023-08-07T04:07:31;11.25;;;4.75;;
57635;SDS011;43465;50.728;4.160;2023-08-07T04:09:56;12.80;;;4.97;;
57635;SDS011;43465;50.728;4.160;2023-08-07T04:12:22;12.57;;;4.35;;
57635;SDS011;43465;50.728;4.160;2023-08-07T04:14:48;8.23;;;4.25;;
57635;SDS011;43465;50.728;4.160;2023-08-07T04:17:13;8.52;;;4.40;;
57635;SDS011;43465;50.728;4.160;2023-08-07T04:19:39;11.90;;;4.50;;
57635;SDS011;43465;50.728;4.160;2023-08-07T04:22:05;7.07;;;4.32;;
57635;SDS011;43465;50.728;4.160;2023-08-07T04:24:30;8.60;;;4.30;;
57635;SDS011;43465;50.728;4.160;2023-08-07T04:26:56;13.85;;;4.65;;
57635;SDS011;43465;50.728;4.160;2023-08-07T04:29:21;9.07;;;4.32;;
57635;SDS011;43465;50.728;4.160;2023-08-07T04:31:47;12.02;;;4.28;;
57635;SDS011;43465;50.728;4.160;2023-08-07T04:34:13;9.13;;;4.18;;
57635;SDS011;43465;50.728;4.160;2023-08-07T04:36:39;9.68;;;4.72;;
57635;SDS011;43465;50.728;4.160;2023-08-07T04:39:04;10.05;;;4.50;;
57635;SDS011;43465;50.728;4.160;2023-08-07T04:41:30;9.13;;;4.22;;
57635;SDS011;43465;50.728;4.160;2023-08-07T04:43:55;7.90;;;4.15;;
57635;SDS011;43465;50.728;4.160;2023-08-07T04:46:21;11.32;;;4.40;;
57635;SDS011;43465;50.728;4.160;2023-08-07T04:48:47;13.18;;;4.47;;
57635;SDS011;43465;50.728;4.160;2023-08-07T04:51:13;12.27;;;4.78;;
57635;SDS011;43465;50.728;4.160;2023-08-07T04:53:40;11.23;;;4.72;;
57635;SDS011;43465;50.728;4.160;2023-08-07T04:56:06;10.93;;;4.80;;
57635;SDS011;43465;50.728;4.160;2023-08-07T04:58:31;14.75;;;5.20;;
57635;SDS011;43465;50.728;4.160;2023-08-07T05:00:58;10.93;;;5.18;;
57635;SDS011;43465;50.728;4.160;2023-08-07T05:03:25;10.73;;;4.57;;
57635;SDS011;43465;50.728;4.160;2023-08-07T05:05:59;9.70;;;4.95;;
57635;SDS011;43465;50.728;4.160;2023-08-07T05:08:26;11.40;;;4.93;;
57635;SDS011;43465;50.728;4.160;2023-08-07T05:10:52;15.00;;;4.97;;
57635;SDS011;43465;50.728;4.160;2023-08-07T05:13:17;10.10;;;4.53;;
57635;SDS011;43465;50.728;4.160;2023-08-07T05:15:43;9.02;;;4.70;;
57635;SDS011;43465;50.728;4.160;2023-08-07T05:18:08;7.00;;;4.57;;
57635;SDS011;43465;50.728;4.160;2023-08-07T05:20:34;10.32;;;4.88;;
57635;SDS011;43465;50.728;4.160;2023-08-07T05:23:00;10.85;;;5.45;;
57635;SDS011;43465;50.728;4.160;2023-08-07T05:25:25;10.20;;;4.88;;
57635;SDS011;43465;50.728;4.160;2023-08-07T05:27:51;10.48;;;5.45;;
57635;SDS011;43465;50.728;4.160;2023-08-07T05:30:16;11.20;;;5.15;;
57635;SDS011;43465;50.728;4.160;2023-08-07T05:32:42;14.68;;;5.30;;
57635;SDS011;43465;50.728;4.160;2023-08-07T05:35:08;7.00;;;4.45;;
57635;SDS011;43465;50.728;4.160;2023-08-07T05:37:34;11.85;;;5.00;;
57635;SDS011;43465;50.728;4.160;2023-08-07T05:40:00;13.82;;;5.13;;
57635;SDS011;43465;50.728;4.160;2023-08-07T05:42:26;7.45;;;5.20;;
57635;SDS011;43465;50.728;4.160;2023-08-07T05:44:51;10.05;;;4.82;;
57635;SDS011;43465;50.728;4.160;2023-08-07T05:47:17;7.43;;;4.68;;
57635;SDS011;43465;50.728;4.160;2023-08-07T05:49:43;8.10;;;4.57;;
57635;SDS011;43465;50.728;4.160;2023-08-07T05:52:08;9.60;;;5.13;;
57635;SDS011;43465;50.728;4.160;2023-08-07T05:54:34;11.80;;;5.07;;
57635;SDS011;43465;50.728;4.160;2023-08-07T05:57:00;9.20;;;5.65;;
57635;SDS011;43465;50.728;4.160;2023-08-07T05:59:25;9.52;;;4.95;;
57635;SDS011;43465;50.728;4.160;2023-08-07T06:01:51;14.35;;;4.78;;
57635;SDS011;43465;50.728;4.160;2023-08-07T06:04:18;8.73;;;4.93;;
57635;SDS011;43465;50.728;4.160;2023-08-07T06:06:43;11.50;;;5.00;;
57635;SDS011;43465;50.728;4.160;2023-08-07T06:09:11;8.80;;;5.00;;
57635;SDS011;43465;50.728;4.160;2023-08-07T06:11:37;12.48;;;5.07;;
57635;SDS011;43465;50.728;4.160;2023-08-07T06:14:03;13.10;;;4.88;;
57635;SDS011;43465;50.728;4.160;2023-08-07T06:16:28;9.07;;;4.93;;
57635;SDS011;43465;50.728;4.160;2023-08-07T06:18:54;11.15;;;4.90;;
57635;SDS011;43465;50.728;4.160;2023-08-07T06:21:20;10.38;;;4.90;;
57635;SDS011;43465;50.728;4.160;2023-08-07T06:23:46;12.32;;;5.10;;
57635;SDS011;43465;50.728;4.160;2023-08-07T06:26:12;18.60;;;5.47;;
57635;SDS011;43465;50.728;4.160;2023-08-07T06:28:38;12.38;;;5.15;;
57635;SDS011;43465;50.728;4.160;2023-08-07T06:31:04;7.38;;;5.20;;
57635;SDS011;43465;50.728;4.160;2023-08-07T06:33:31;9.23;;;5.00;;
57635;SDS011;43465;50.728;4.160;2023-08-07T06:35:58;9.23;;;5.72;;
57635;SDS011;43465;50.728;4.160;2023-08-07T06:38:24;9.18;;;4.68;;
57635;SDS011;43465;50.728;4.160;2023-08-07T06:40:49;12.98;;;5.70;;
57635;SDS011;43465;50.728;4.160;2023-08-07T06:43:15;8.45;;;5.15;;
57635;SDS011;43465;50.728;4.160;2023-08-07T06:45:40;7.55;;;4.82;;
57635;SDS011;43465;50.728;4.160;2023-08-07T06:48:06;10.00;;;5.05;;
57635;SDS011;43465;50.728;4.160;2023-08-07T06:50:32;10.93;;;5.20;;
57635;SDS011;43465;50.728;4.160;2023-08-07T06:52:58;9.95;;;4.70;;
57635;SDS011;43465;50.728;4.160;2023-08-07T06:55:24;7.88;;;4.75;;
57635;SDS011;43465;50.728;4.160;2023-08-07T06:57:50;7.65;;;4.40;;
57635;SDS011;43465;50.728;4.160;2023-08-07T07:00:16;10.90;;;4.30;;
57635;SDS011;43465;50.728;4.160;2023-08-07T07:02:42;7.05;;;3.92;;
57635;SDS011;43465;50.728;4.160;2023-08-07T07:05:07;11.73;;;4.32;;
57635;SDS011;43465;50.728;4.160;2023-08-07T07:07:33;11.05;;;4.25;;
57635;SDS011;43465;50.728;4.160;2023-08-07T07:09:59;6.72;;;3.67;;
57635;SDS011;43465;50.728;4.160;2023-08-07T07:12:26;6.78;;;3.60;;
57635;SDS011;43465;50.728;4.160;2023-08-07T07:14:52;4.72;;;3.63;;
57635;SDS011;43465;50.728;4.160;2023-08-07T07:17:17;9.93;;;4.30;;
57635;SDS011;43465;50.728;4.160;2023-08-07T07:19:43;9.38;;;4.20;;
57635;SDS011;43465;50.728;4.160;2023-08-07T07:22:09;10.60;;;4.15;;
57635;SDS011;43465;50.728;4.160;2023-08-07T07:24:34;8.43;;;3.85;;
57635;SDS011;43465;50.728;4.160;2023-08-07T07:27:00;9.32;;;3.40;;
57635;SDS011;43465;50.728;4.160;2023-08-07T07:29:26;6.82;;;3.80;;
57635;SDS011;43465;50.728;4.160;2023-08-07T07:31:51;8.48;;;3.92;;
57635;SDS011;43465;50.728;4.160;2023-08-07T07:34:18;10.80;;;3.65;;
57635;SDS011;43465;50.728;4.160;2023-08-07T07:36:44;6.72;;;3.63;;
57635;SDS011;43465;50.728;4.160;2023-08-07T07:39:10;7.28;;;3.70;;
57635;SDS011;43465;50.728;4.160;2023-08-07T07:41:36;6.55;;;3.08;;
57635;SDS011;43465;50.728;4.160;2023-08-07T07:44:01;7.57;;;3.15;;
57635;SDS011;43465;50.728;4.160;2023-08-07T07:46:27;7.97;;;2.88;;
57635;SDS011;43465;50.728;4.160;2023-08-07T07:48:53;10.63;;;3.53;;
57635;SDS011;43465;50.728;4.160;2023-08-07T07:51:20;5.97;;;3.30;;
57635;SDS011;43465;50.728;4.160;2023-08-07T07:53:46;9.30;;;3.15;;
57635;SDS011;43465;50.728;4.160;2023-08-07T07:56:12;7.30;;;3.00;;
57635;SDS011;43465;50.728;4.160;2023-08-07T07:58:37;5.03;;;2.60;;
57635;SDS011;43465;50.728;4.160;2023-08-07T08:01:03;5.28;;;2.50;;
57635;SDS011;43465;50.728;4.160;2023-08-07T08:03:29;7.30;;;2.65;;
57635;SDS011;43465;50.728;4.160;2023-08-07T08:05:54;5.78;;;2.42;;
57635;SDS011;43465;50.728;4.160;2023-08-07T08:08:20;6.10;;;2.80;;
57635;SDS011;43465;50.728;4.160;2023-08-07T08:10:45;3.97;;;2.22;;
57635;SDS011;43465;50.728;4.160;2023-08-07T08:13:13;5.72;;;2.63;;
57635;SDS011;43465;50.728;4.160;2023-08-07T08:15:41;5.82;;;2.30;;
57635;SDS011;43465;50.728;4.160;2023-08-07T08:18:09;3.78;;;2.40;;
57635;SDS011;43465;50.728;4.160;2023-08-07T08:20:35;4.95;;;2.35;;
57635;SDS011;43465;50.728;4.160;2023-08-07T08:23:01;4.13;;;2.38;;
57635;SDS011;43465;50.728;4.160;2023-08-07T08:25:27;7.05;;;2.40;;
57635;SDS011;43465;50.728;4.160;2023-08-07T08:27:53;5.97;;;2.20;;
57635;SDS011;43465;50.728;4.160;2023-08-07T08:30:19;4.00;;;2.50;;
57635;SDS011;43465;50.728;4.160;2023-08-07T08:32:45;7.85;;;2.90;;
57635;SDS011;43465;50.728;4.160;2023-08-07T08:35:11;6.07;;;2.40;;
57635;SDS011;43465;50.728;4.160;2023-08-07T08:37:36;4.07;;;2.28;;
57635;SDS011;43465;50.728;4.160;2023-08-07T08:40:02;8.60;;;2.63;;
57635;SDS011;43465;50.728;4.160;2023-08-07T08:42:28;5.50;;;2.42;;
57635;SDS011;43465;50.728;4.160;2023-08-07T08:44:55;4.88;;;2.40;;
57635;SDS011;43465;50.728;4.160;2023-08-07T08:47:22;7.13;;;2.63;;
57635;SDS011;43465;50.728;4.160;2023-08-07T08:49:50;6.53;;;2.40;;
57635;SDS011;43465;50.728;4.160;2023-08-07T08:52:23;4.30;;;2.50;;
57635;SDS011;43465;50.728;4.160;2023-08-07T08:54:50;4.78;;;2.17;;
57635;SDS011;43465;50.728;4.160;2023-08-07T08:57:16;4.28;;;2.15;;
57635;SDS011;43465;50.728;4.160;2023-08-07T08:59:42;5.43;;;2.30;;
57635;SDS011;43465;50.728;4.160;2023-08-07T09:02:09;4.30;;;2.17;;
57635;SDS011;43465;50.728;4.160;2023-08-07T09:04:35;4.55;;;2.20;;
57635;SDS011;43465;50.728;4.160;2023-08-07T09:07:01;4.43;;;1.95;;
57635;SDS011;43465;50.728;4.160;2023-08-07T09:09:27;4.90;;;2.22;;
57635;SDS011;43465;50.728;4.160;2023-08-07T09:11:53;2.60;;;2.20;;
57635;SDS011;43465;50.728;4.160;2023-08-07T09:14:22;5.00;;;2.17;;
57635;SDS011;43465;50.728;4.160;2023-08-07T09:16:51;4.55;;;2.00;;
57635;SDS011;43465;50.728;4.160;2023-08-07T09:19:18;5.00;;;1.90;;
57635;SDS011;43465;50.728;4.160;2023-08-07T09:21:44;4.25;;;1.95;;
57635;SDS011;43465;50.728;4.160;2023-08-07T09:24:10;5.10;;;2.05;;
57635;SDS011;43465;50.728;4.160;2023-08-07T09:26:36;4.53;;;2.28;;
57635;SDS011;43465;50.728;4.160;2023-08-07T09:29:03;7.47;;;2.53;;
57635;SDS011;43465;50.728;4.160;2023-08-07T09:31:29;3.75;;;2.47;;
57635;SDS011;43465;50.728;4.160;2023-08-07T09:34:01;5.65;;;2.45;;
57635;SDS011;43465;50.728;4.160;2023-08-07T09:36:29;4.82;;;2.85;;
57635;SDS011;43465;50.728;4.160;2023-08-07T09:38:56;3.65;;;2.45;;
57635;SDS011;43465;50.728;4.160;2023-08-07T09:41:26;5.65;;;2.50;;
57635;SDS011;43465;50.728;4.160;2023-08-07T09:43:53;3.40;;;2.55;;
57635;SDS011;43465;50.728;4.160;2023-08-07T09:46:19;5.15;;;2.20;;
57635;SDS011;43465;50.728;4.160;2023-08-07T09:48:45;4.95;;;2.38;;
57635;SDS011;43465;50.728;4.160;2023-08-07T09:51:11;2.00;;;1.83;;
57635;SDS011;43465;50.728;4.160;2023-08-07T09:53:37;4.85;;;2.08;;
57635;SDS011;43465;50.728;4.160;2023-08-07T09:56:02;3.30;;;2.20;;
57635;SDS011;43465;50.728;4.160;2023-08-07T09:58:28;3.67;;;2.10;;
57635;SDS011;43465;50.728;4.160;2023-08-07T10:00:54;3.05;;;2.20;;
57635;SDS011;43465;50.728;4.160;2023-08-07T10:03:24;5.53;;;2.03;;
57635;SDS011;43465;50.728;4.160;2023-08-07T10:05:50;2.30;;;1.70;;
57635;SDS011;43465;50.728;4.160;2023-08-07T10:08:16;3.08;;;1.98;;
57635;SDS011;43465;50.728;4.160;2023-08-07T10:10:43;3.45;;;2.00;;
57635;SDS011;43465;50.728;4.160;2023-08-07T10:13:09;3.08;;;2.30;;
57635;SDS011;43465;50.728;4.160;2023-08-07T10:15:38;3.35;;;2.00;;
57635;SDS011;43465;50.728;4.160;2023-08-07T10:18:05;2.75;;;2.50;;
57635;SDS011;43465;50.728;4.160;2023-08-07T10:20:31;3.80;;;2.40;;
57635;SDS011;43465;50.728;4.160;2023-08-07T10:23:00;2.40;;;2.20;;
57635;SDS011;43465;50.728;4.160;2023-08-07T10:25:32;2.28;;;2.05;;
57635;SDS011;43465;50.728;4.160;2023-08-07T10:28:02;2.83;;;2.13;;
57635;SDS011;43465;50.728;4.160;2023-08-07T10:30:30;2.95;;;2.15;;
57635;SDS011;43465;50.728;4.160;2023-08-07T10:32:58;4.57;;;2.15;;
57635;SDS011;43465;50.728;4.160;2023-08-07T10:37:50;3.70;;;1.80;;
57635;SDS011;43465;50.728;4.160;2023-08-07T10:40:18;4.32;;;2.22;;
57635;SDS011;43465;50.728;4.160;2023-08-07T10:42:56;3.22;;;1.92;;
57635;SDS011;43465;50.728;4.160;2023-08-07T10:45:36;2.58;;;1.90;;
57635;SDS011;43465;50.728;4.160;2023-08-07T10:48:07;3.42;;;1.98;;
57635;SDS011;43465;50.728;4.160;2023-08-07T10:50:35;2.45;;;2.05;;
57635;SDS011;43465;50.728;4.160;2023-08-07T10:53:12;2.28;;;2.03;;
57635;SDS011;43465;50.728;4.160;2023-08-07T10:56:07;4.45;;;1.92;;
57635;SDS011;43465;50.728;4.160;2023-08-07T10:58:38;2.03;;;1.80;;
57635;SDS011;43465;50.728;4.160;2023-08-07T11:03:52;5.30;;;2.17;;
57635;SDS011;43465;50.728;4.160;2023-08-07T11:06:27;5.35;;;1.95;;
57635;SDS011;43465;50.728;4.160;2023-08-07T11:08:56;3.22;;;1.58;;
57635;SDS011;43465;50.728;4.160;2023-08-07T11:11:23;5.70;;;1.70;;
57635;SDS011;43465;50.728;4.160;2023-08-07T11:13:49;1.80;;;1.70;;
57635;SDS011;43465;50.728;4.160;2023-08-07T11:16:15;2.33;;;1.45;;
57635;SDS011;43465;50.728;4.160;2023-08-07T11:18:41;3.80;;;1.77;;
57635;SDS011;43465;50.728;4.160;2023-08-07T11:21:08;3.42;;;1.80;;
57635;SDS011;43465;50.728;4.160;2023-08-07T11:23:38;7.13;;;1.80;;
57635;SDS011;43465;50.728;4.160;2023-08-07T11:26:04;6.40;;;1.85;;
57635;SDS011;43465;50.728;4.160;2023-08-07T11:28:30;2.38;;;1.67;;
57635;SDS011;43465;50.728;4.160;2023-08-07T11:30:56;5.55;;;2.03;;
57635;SDS011;43465;50.728;4.160;2023-08-07T11:33:25;1.70;;;1.50;;
57635;SDS011;43465;50.728;4.160;2023-08-07T11:35:52;5.10;;;1.77;;
57635;SDS011;43465;50.728;4.160;2023-08-07T11:38:29;1.90;;;1.65;;
57635;SDS011;43465;50.728;4.160;2023-08-07T11:40:58;1.77;;;1.55;;
57635;SDS011;43465;50.728;4.160;2023-08-07T11:43:26;2.55;;;1.55;;
57635;SDS011;43465;50.728;4.160;2023-08-07T11:45:52;3.65;;;1.60;;
57635;SDS011;43465;50.728;4.160;2023-08-07T11:48:18;2.58;;;1.55;;
57635;SDS011;43465;50.728;4.160;2023-08-07T11:50:44;3.70;;;2.05;;
57635;SDS011;43465;50.728;4.160;2023-08-07T11:53:10;2.33;;;1.20;;
57635;SDS011;43465;50.728;4.160;2023-08-07T11:55:36;2.53;;;1.38;;
57635;SDS011;43465;50.728;4.160;2023-08-07T11:58:04;1.60;;;1.40;;
57635;SDS011;43465;50.728;4.160;2023-08-07T12:00:32;4.50;;;1.48;;
57635;SDS011;43465;50.728;4.160;2023-08-07T12:02:57;3.72;;;1.40;;
57635;SDS011;43465;50.728;4.160;2023-08-07T12:05:23;2.75;;;1.73;;
57635;SDS011;43465;50.728;4.160;2023-08-07T12:07:48;1.27;;;1.17;;
57635;SDS011;43465;50.728;4.160;2023-08-07T12:10:14;1.70;;;1.27;;
57635;SDS011;43465;50.728;4.160;2023-08-07T12:12:40;3.00;;;1.30;;
57635;SDS011;43465;50.728;4.160;2023-08-07T12:15:08;3.05;;;1.67;;
57635;SDS011;43465;50.728;4.160;2023-08-07T12:17:35;1.45;;;1.30;;
57635;SDS011;43465;50.728;4.160;2023-08-07T12:20:03;1.58;;;1.45;;
57635;SDS011;43465;50.728;4.160;2023-08-07T12:22:35;1.80;;;1.50;;
57635;SDS011;43465;50.728;4.160;2023-08-07T12:25:01;1.48;;;1.10;;
57635;SDS011;43465;50.728;4.160;2023-08-07T12:27:27;3.95;;;1.30;;
57635;SDS011;43465;50.728;4.160;2023-08-07T12:29:53;1.77;;;1.20;;
57635;SDS011;43465;50.728;4.160;2023-08-07T12:32:18;2.13;;;1.10;;
57635;SDS011;43465;50.728;4.160;2023-08-07T12:34:44;1.35;;;1.08;;
57635;SDS011;43465;50.728;4.160;2023-08-07T12:37:10;1.20;;;1.10;;
57635;SDS011;43465;50.728;4.160;2023-08-07T12:39:35;1.27;;;1.02;;
57635;SDS011;43465;50.728;4.160;2023-08-07T12:42:01;2.38;;;1.17;;
57635;SDS011;43465;50.728;4.160;2023-08-07T12:44:28;1.33;;;1.17;;
57635;SDS011;43465;50.728;4.160;2023-08-07T12:46:54;5.22;;;1.23;;
57635;SDS011;43465;50.728;4.160;2023-08-07T12:49:20;2.10;;;1.17;;
57635;SDS011;43465;50.728;4.160;2023-08-07T12:51:45;1.52;;;1.00;;
57635;SDS011;43465;50.728;4.160;2023-08-07T12:54:11;1.15;;;1.02;;
57635;SDS011;43465;50.728;4.160;2023-08-07T12:56:36;2.72;;;1.35;;
57635;SDS011;43465;50.728;4.160;2023-08-07T12:59:02;1.10;;;1.10;;
57635;SDS011;43465;50.728;4.160;2023-08-07T13:01:28;1.30;;;0.90;;
57635;SDS011;43465;50.728;4.160;2023-08-07T13:03:53;5.53;;;1.10;;
57635;SDS011;43465;50.728;4.160;2023-08-07T13:09:12;4.18;;;1.08;;
57635;SDS011;43465;50.728;4.160;2023-08-07T13:11:43;2.00;;;1.10;;
57635;SDS011;43465;50.728;4.160;2023-08-07T13:14:25;1.50;;;0.98;;
57635;SDS011;43465;50.728;4.160;2023-08-07T13:16:58;1.10;;;0.98;;
57635;SDS011;43465;50.728;4.160;2023-08-07T13:19:25;1.00;;;0.90;;
57635;SDS011;43465;50.728;4.160;2023-08-07T13:24:36;1.55;;;0.90;;
57635;SDS011;43465;50.728;4.160;2023-08-07T13:27:02;0.80;;;0.80;;
57635;SDS011;43465;50.728;4.160;2023-08-07T13:29:31;1.00;;;1.00;;
57635;SDS011;43465;50.728;4.160;2023-08-07T13:32:08;2.95;;;1.13;;
57635;SDS011;43465;50.728;4.160;2023-08-07T13:34:37;1.00;;;0.90;;
57635;SDS011;43465;50.728;4.160;2023-08-07T13:37:06;1.60;;;1.20;;
57635;SDS011;43465;50.728;4.160;2023-08-07T13:39:32;1.60;;;1.00;;
57635;SDS011;43465;50.728;4.160;2023-08-07T13:41:58;1.80;;;1.00;;
57635;SDS011;43465;50.728;4.160;2023-08-07T13:44:27;3.83;;;1.30;;
57635;SDS011;43465;50.728;4.160;2023-08-07T13:46:53;2.33;;;0.90;;
57635;SDS011;43465;50.728;4.160;2023-08-07T13:49:19;1.42;;;1.00;;
57635;SDS011;43465;50.728;4.160;2023-08-07T13:51:48;2.17;;;1.30;;
57635;SDS011;43465;50.728;4.160;2023-08-07T13:54:14;1.83;;;1.05;;
57635;SDS011;43465;50.728;4.160;2023-08-07T13:56:40;1.60;;;1.02;;
57635;SDS011;43465;50.728;4.160;2023-08-07T13:59:05;1.73;;;1.10;;
57635;SDS011;43465;50.728;4.160;2023-08-07T14:01:31;1.23;;;1.10;;
57635;SDS011;43465;50.728;4.160;2023-08-07T14:03:58;1.48;;;1.10;;
57635;SDS011;43465;50.728;4.160;2023-08-07T14:06:23;3.50;;;1.05;;
57635;SDS011;43465;50.728;4.160;2023-08-07T14:08:49;2.05;;;1.10;;
57635;SDS011;43465;50.728;4.160;2023-08-07T14:11:15;1.38;;;1.20;;
57635;SDS011;43465;50.728;4.160;2023-08-07T14:13:45;2.53;;;1.02;;
57635;SDS011;43465;50.728;4.160;2023-08-07T14:16:12;1.90;;;1.05;;
57635;SDS011;43465;50.728;4.160;2023-08-07T14:18:38;2.33;;;1.42;;
57635;SDS011;43465;50.728;4.160;2023-08-07T14:21:04;1.45;;;1.20;;
57635;SDS011;43465;50.728;4.160;2023-08-07T14:23:30;8.07;;;1.00;;
57635;SDS011;43465;50.728;4.160;2023-08-07T14:25:56;3.22;;;1.00;;
57635;SDS011;43465;50.728;4.160;2023-08-07T14:28:22;2.97;;;1.13;;
57635;SDS011;43465;50.728;4.160;2023-08-07T14:30:48;2.13;;;1.13;;
57635;SDS011;43465;50.728;4.160;2023-08-07T14:33:14;1.83;;;1.10;;
57635;SDS011;43465;50.728;4.160;2023-08-07T14:35:40;1.52;;;0.95;;
57635;SDS011;43465;50.728;4.160;2023-08-07T14:38:11;2.65;;;1.00;;
57635;SDS011;43465;50.728;4.160;2023-08-07T14:40:36;5.03;;;0.93;;
57635;SDS011;43465;50.728;4.160;2023-08-07T14:43:05;4.40;;;1.13;;
57635;SDS011;43465;50.728;4.160;2023-08-07T14:45:31;1.77;;;1.00;;
57635;SDS011;43465;50.728;4.160;2023-08-07T14:47:57;2.60;;;1.20;;
57635;SDS011;43465;50.728;4.160;2023-08-07T14:50:23;1.83;;;1.30;;
57635;SDS011;43465;50.728;4.160;2023-08-07T14:52:48;2.63;;;1.30;;
57635;SDS011;43465;50.728;4.160;2023-08-07T14:55:14;2.50;;;1.30;;